sensor_id;sensor_type;location;lat;lon;timestamp;temperature;humidity
21918;DHT22;11123;49.882;8.662;2022-07-11T00:01:28;17.60;99.90
21918;DHT22;11123;49.882;8.662;2022-07-11T00:03:57;17.70;99.90
21918;DHT22;11123;49.882;8.662;2022-07-11T00:06:26;17.60;99.90
21918;DHT22;11123;49.882;8.662;2022-07-11T00:08:54;17.60;99.90
21918;DHT22;11123;49.882;8.662;2022-07-11T00:11:23;17.60;99.90
21918;DHT22;11123;49.882;8.662;2022-07-11T00:13:51;17.60;99.90
21918;DHT22;11123;49.882;8.662;2022-07-11T00:16:20;17.50;99.90
21918;DHT22;11123;49.882;8.662;2022-07-11T00:18:48;17.50;99.90
21918;DHT22;11123;49.882;8.662;2022-07-11T00:21:16;17.50;99.90
21918;DHT22;11123;49.882;8.662;2022-07-11T00:23:45;17.50;99.90
21918;DHT22;11123;49.882;8.662;2022-07-11T00:26:13;17.60;99.90
21918;DHT22;11123;49.882;8.662;2022-07-11T00:28:42;17.50;99.90
21918;DHT22;11123;49.882;8.662;2022-07-11T00:31:11;17.50;99.90
21918;DHT22;11123;49.882;8.662;2022-07-11T00:33:39;17.50;99.90
21918;DHT22;11123;49.882;8.662;2022-07-11T00:36:08;17.50;99.90
21918;DHT22;11123;49.882;8.662;2022-07-11T00:38:36;17.50;99.90
21918;DHT22;11123;49.882;8.662;2022-07-11T00:41:04;17.50;99.90
21918;DHT22;11123;49.882;8.662;2022-07-11T00:43:34;17.50;99.90
21918;DHT22;11123;49.882;8.662;2022-07-11T00:46:04;17.50;99.90
21918;DHT22;11123;49.882;8.662;2022-07-11T00:48:33;17.50;99.90
21918;DHT22;11123;49.882;8.662;2022-07-11T00:51:03;17.50;99.90
21918;DHT22;11123;49.882;8.662;2022-07-11T00:53:32;17.50;99.90
21918;DHT22;11123;49.882;8.662;2022-07-11T00:56:01;17.50;99.90
21918;DHT22;11123;49.882;8.662;2022-07-11T00:58:30;17.50;99.90
21918;DHT22;11123;49.882;8.662;2022-07-11T01:00:58;17.50;99.90
21918;DHT22;11123;49.882;8.662;2022-07-11T01:03:28;17.50;99.90
21918;DHT22;11123;49.882;8.662;2022-07-11T01:05:56;17.50;99.90
21918;DHT22;11123;49.882;8.662;2022-07-11T01:08:25;17.50;99.90
21918;DHT22;11123;49.882;8.662;2022-07-11T01:11:00;17.40;99.90
21918;DHT22;11123;49.882;8.662;2022-07-11T01:13:28;17.40;99.90
21918;DHT22;11123;49.882;8.662;2022-07-11T01:16:09;17.40;99.90
21918;DHT22;11123;49.882;8.662;2022-07-11T01:18:39;17.40;99.90
21918;DHT22;11123;49.882;8.662;2022-07-11T01:21:17;17.50;99.90
21918;DHT22;11123;49.882;8.662;2022-07-11T01:23:49;17.50;99.90
21918;DHT22;11123;49.882;8.662;2022-07-11T01:26:19;17.50;99.90
21918;DHT22;11123;49.882;8.662;2022-07-11T01:28:47;17.50;99.90
21918;DHT22;11123;49.882;8.662;2022-07-11T01:31:16;17.50;99.90
21918;DHT22;11123;49.882;8.662;2022-07-11T01:33:44;17.50;99.90
21918;DHT22;11123;49.882;8.662;2022-07-11T01:36:13;17.50;99.90
21918;DHT22;11123;49.882;8.662;2022-07-11T01:38:41;17.50;99.90
21918;DHT22;11123;49.882;8.662;2022-07-11T01:41:10;17.50;99.90
21918;DHT22;11123;49.882;8.662;2022-07-11T01:43:38;17.50;99.90
21918;DHT22;11123;49.882;8.662;2022-07-11T01:46:07;17.50;99.90
21918;DHT22;11123;49.882;8.662;2022-07-11T01:48:35;17.50;99.90
21918;DHT22;11123;49.882;8.662;2022-07-11T01:51:04;17.50;99.90
21918;DHT22;11123;49.882;8.662;2022-07-11T01:53:32;17.50;99.90
21918;DHT22;11123;49.882;8.662;2022-07-11T01:56:00;17.40;99.90
21918;DHT22;11123;49.882;8.662;2022-07-11T01:58:49;17.50;99.90
21918;DHT22;11123;49.882;8.662;2022-07-11T02:01:17;17.50;99.90
21918;DHT22;11123;49.882;8.662;2022-07-11T02:03:46;17.60;99.90
21918;DHT22;11123;49.882;8.662;2022-07-11T02:06:14;17.60;99.90
21918;DHT22;11123;49.882;8.662;2022-07-11T02:08:42;17.60;99.90
21918;DHT22;11123;49.882;8.662;2022-07-11T02:11:10;17.60;99.90
21918;DHT22;11123;49.882;8.662;2022-07-11T02:13:38;17.60;99.90
21918;DHT22;11123;49.882;8.662;2022-07-11T02:16:09;17.60;99.90
21918;DHT22;11123;49.882;8.662;2022-07-11T02:18:37;17.60;99.90
21918;DHT22;11123;49.882;8.662;2022-07-11T02:21:05;17.60;99.90
21918;DHT22;11123;49.882;8.662;2022-07-11T02:23:33;17.60;99.90
21918;DHT22;11123;49.882;8.662;2022-07-11T02:26:01;17.60;99.90
21918;DHT22;11123;49.882;8.662;2022-07-11T02:28:29;17.60;99.90
21918;DHT22;11123;49.882;8.662;2022-07-11T02:30:58;17.60;99.90
21918;DHT22;11123;49.882;8.662;2022-07-11T02:33:28;17.60;99.90
21918;DHT22;11123;49.882;8.662;2022-07-11T02:35:56;17.60;99.90
21918;DHT22;11123;49.882;8.662;2022-07-11T02:38:24;17.60;99.90
21918;DHT22;11123;49.882;8.662;2022-07-11T02:40:53;17.60;99.90
21918;DHT22;11123;49.882;8.662;2022-07-11T02:43:21;17.50;99.90
21918;DHT22;11123;49.882;8.662;2022-07-11T02:45:49;17.50;99.90
21918;DHT22;11123;49.882;8.662;2022-07-11T02:48:18;17.50;99.90
21918;DHT22;11123;49.882;8.662;2022-07-11T02:50:47;17.60;99.90
21918;DHT22;11123;49.882;8.662;2022-07-11T02:53:15;17.50;99.90
21918;DHT22;11123;49.882;8.662;2022-07-11T02:55:44;17.60;99.90
21918;DHT22;11123;49.882;8.662;2022-07-11T02:58:12;17.60;99.90
21918;DHT22;11123;49.882;8.662;2022-07-11T03:00:40;17.60;99.90
21918;DHT22;11123;49.882;8.662;2022-07-11T03:03:09;17.60;99.90
21918;DHT22;11123;49.882;8.662;2022-07-11T03:05:37;17.60;99.90
21918;DHT22;11123;49.882;8.662;2022-07-11T03:08:06;17.60;99.90
21918;DHT22;11123;49.882;8.662;2022-07-11T03:10:34;17.60;99.90
21918;DHT22;11123;49.882;8.662;2022-07-11T03:13:03;17.70;99.90
21918;DHT22;11123;49.882;8.662;2022-07-11T03:15:31;17.60;99.90
21918;DHT22;11123;49.882;8.662;2022-07-11T03:18:00;17.60;99.90
21918;DHT22;11123;49.882;8.662;2022-07-11T03:20:28;17.60;99.90
21918;DHT22;11123;49.882;8.662;2022-07-11T03:22:56;17.60;99.90
21918;DHT22;11123;49.882;8.662;2022-07-11T03:25:26;17.60;99.90
21918;DHT22;11123;49.882;8.662;2022-07-11T03:27:54;17.60;99.90
21918;DHT22;11123;49.882;8.662;2022-07-11T03:30:23;17.70;99.90
21918;DHT22;11123;49.882;8.662;2022-07-11T03:32:51;17.60;99.90
21918;DHT22;11123;49.882;8.662;2022-07-11T03:35:19;17.60;99.90
21918;DHT22;11123;49.882;8.662;2022-07-11T03:38:05;17.50;99.90
21918;DHT22;11123;49.882;8.662;2022-07-11T03:40:35;17.40;99.90
21918;DHT22;11123;49.882;8.662;2022-07-11T03:43:03;17.30;99.90
21918;DHT22;11123;49.882;8.662;2022-07-11T03:45:31;17.40;99.90
21918;DHT22;11123;49.882;8.662;2022-07-11T03:48:00;17.40;99.90
21918;DHT22;11123;49.882;8.662;2022-07-11T03:50:28;17.50;99.90
21918;DHT22;11123;49.882;8.662;2022-07-11T03:52:56;17.60;99.90
21918;DHT22;11123;49.882;8.662;2022-07-11T03:55:25;17.60;99.90
21918;DHT22;11123;49.882;8.662;2022-07-11T03:57:55;17.60;99.90
21918;DHT22;11123;49.882;8.662;2022-07-11T04:00:24;17.70;99.90
21918;DHT22;11123;49.882;8.662;2022-07-11T04:02:52;17.70;99.90
21918;DHT22;11123;49.882;8.662;2022-07-11T04:05:20;17.70;99.90
21918;DHT22;11123;49.882;8.662;2022-07-11T04:07:48;17.70;99.90
21918;DHT22;11123;49.882;8.662;2022-07-11T04:10:17;17.70;99.90
21918;DHT22;11123;49.882;8.662;2022-07-11T04:12:46;17.80;99.90
21918;DHT22;11123;49.882;8.662;2022-07-11T04:15:16;17.70;99.90
21918;DHT22;11123;49.882;8.662;2022-07-11T04:17:44;17.70;99.90
21918;DHT22;11123;49.882;8.662;2022-07-11T04:20:12;17.60;99.90
21918;DHT22;11123;49.882;8.662;2022-07-11T04:22:41;17.60;99.90
21918;DHT22;11123;49.882;8.662;2022-07-11T04:25:09;17.70;99.90
21918;DHT22;11123;49.882;8.662;2022-07-11T04:27:37;17.60;99.90
21918;DHT22;11123;49.882;8.662;2022-07-11T04:30:08;17.50;99.90
21918;DHT22;11123;49.882;8.662;2022-07-11T04:32:37;17.50;99.90
21918;DHT22;11123;49.882;8.662;2022-07-11T04:35:06;17.60;99.90
21918;DHT22;11123;49.882;8.662;2022-07-11T04:37:35;17.60;99.90
21918;DHT22;11123;49.882;8.662;2022-07-11T04:40:04;17.60;99.90
21918;DHT22;11123;49.882;8.662;2022-07-11T04:42:39;17.70;99.90
21918;DHT22;11123;49.882;8.662;2022-07-11T04:45:13;17.70;99.90
21918;DHT22;11123;49.882;8.662;2022-07-11T04:47:42;17.80;99.90
21918;DHT22;11123;49.882;8.662;2022-07-11T04:50:11;17.80;99.90
21918;DHT22;11123;49.882;8.662;2022-07-11T04:52:41;17.70;99.90
21918;DHT22;11123;49.882;8.662;2022-07-11T04:55:09;17.80;99.90
21918;DHT22;11123;49.882;8.662;2022-07-11T04:57:37;17.80;99.90
21918;DHT22;11123;49.882;8.662;2022-07-11T05:00:07;17.70;99.90
21918;DHT22;11123;49.882;8.662;2022-07-11T05:02:35;17.60;99.90
21918;DHT22;11123;49.882;8.662;2022-07-11T05:05:05;17.60;99.90
21918;DHT22;11123;49.882;8.662;2022-07-11T05:07:34;17.70;99.90
21918;DHT22;11123;49.882;8.662;2022-07-11T05:10:02;17.80;99.90
21918;DHT22;11123;49.882;8.662;2022-07-11T05:12:31;17.90;99.90
21918;DHT22;11123;49.882;8.662;2022-07-11T05:14:59;18.00;99.90
21918;DHT22;11123;49.882;8.662;2022-07-11T05:17:27;18.00;99.90
21918;DHT22;11123;49.882;8.662;2022-07-11T05:19:55;18.00;99.90
21918;DHT22;11123;49.882;8.662;2022-07-11T05:22:25;18.00;99.90
21918;DHT22;11123;49.882;8.662;2022-07-11T05:24:53;17.90;99.90
21918;DHT22;11123;49.882;8.662;2022-07-11T05:27:21;17.80;99.90
21918;DHT22;11123;49.882;8.662;2022-07-11T05:29:50;17.70;99.90
21918;DHT22;11123;49.882;8.662;2022-07-11T05:32:18;17.60;99.90
21918;DHT22;11123;49.882;8.662;2022-07-11T05:34:46;17.70;99.90
21918;DHT22;11123;49.882;8.662;2022-07-11T05:37:14;17.70;99.90
21918;DHT22;11123;49.882;8.662;2022-07-11T05:39:44;17.80;99.90
21918;DHT22;11123;49.882;8.662;2022-07-11T05:42:12;17.90;99.90
21918;DHT22;11123;49.882;8.662;2022-07-11T05:44:41;18.00;99.90
21918;DHT22;11123;49.882;8.662;2022-07-11T05:47:09;18.00;99.90
21918;DHT22;11123;49.882;8.662;2022-07-11T05:49:37;18.20;99.90
21918;DHT22;11123;49.882;8.662;2022-07-11T05:52:06;18.30;98.60
21918;DHT22;11123;49.882;8.662;2022-07-11T05:54:34;18.30;96.40
21918;DHT22;11123;49.882;8.662;2022-07-11T05:57:05;18.40;96.20
21918;DHT22;11123;49.882;8.662;2022-07-11T05:59:33;18.40;94.90
21918;DHT22;11123;49.882;8.662;2022-07-11T06:02:03;18.50;93.90
21918;DHT22;11123;49.882;8.662;2022-07-11T06:04:32;18.40;97.20
21918;DHT22;11123;49.882;8.662;2022-07-11T06:07:00;18.30;98.40
21918;DHT22;11123;49.882;8.662;2022-07-11T06:09:29;18.20;99.90
21918;DHT22;11123;49.882;8.662;2022-07-11T06:11:56;18.10;99.90
21918;DHT22;11123;49.882;8.662;2022-07-11T06:14:26;18.20;99.90
21918;DHT22;11123;49.882;8.662;2022-07-11T06:16:54;18.20;99.90
21918;DHT22;11123;49.882;8.662;2022-07-11T06:19:22;18.30;99.90
21918;DHT22;11123;49.882;8.662;2022-07-11T06:21:50;18.50;99.90
21918;DHT22;11123;49.882;8.662;2022-07-11T06:24:19;18.60;94.50
21918;DHT22;11123;49.882;8.662;2022-07-11T06:26:48;18.80;92.70
21918;DHT22;11123;49.882;8.662;2022-07-11T06:29:16;18.80;92.80
21918;DHT22;11123;49.882;8.662;2022-07-11T06:31:45;18.90;90.50
21918;DHT22;11123;49.882;8.662;2022-07-11T06:34:14;19.00;84.40
21918;DHT22;11123;49.882;8.662;2022-07-11T06:36:42;19.10;78.60
21918;DHT22;11123;49.882;8.662;2022-07-11T06:39:10;18.80;68.20
21918;DHT22;11123;49.882;8.662;2022-07-11T06:41:38;18.60;82.70
21918;DHT22;11123;49.882;8.662;2022-07-11T06:44:07;18.50;87.20
21918;DHT22;11123;49.882;8.662;2022-07-11T06:46:35;18.50;91.20
21918;DHT22;11123;49.882;8.662;2022-07-11T06:49:06;18.50;90.40
21918;DHT22;11123;49.882;8.662;2022-07-11T06:51:34;18.60;88.10
21918;DHT22;11123;49.882;8.662;2022-07-11T06:54:03;18.60;87.90
21918;DHT22;11123;49.882;8.662;2022-07-11T06:56:31;18.70;86.10
21918;DHT22;11123;49.882;8.662;2022-07-11T06:58:59;18.80;84.40
21918;DHT22;11123;49.882;8.662;2022-07-11T07:01:28;19.00;75.30
21918;DHT22;11123;49.882;8.662;2022-07-11T07:03:56;19.00;80.90
21918;DHT22;11123;49.882;8.662;2022-07-11T07:06:25;19.00;77.90
21918;DHT22;11123;49.882;8.662;2022-07-11T07:08:54;19.10;74.80
21918;DHT22;11123;49.882;8.662;2022-07-11T07:11:22;19.10;67.30
21918;DHT22;11123;49.882;8.662;2022-07-11T07:13:51;19.00;73.50
21918;DHT22;11123;49.882;8.662;2022-07-11T07:16:19;19.10;77.90
21918;DHT22;11123;49.882;8.662;2022-07-11T07:18:47;19.20;73.90
21918;DHT22;11123;49.882;8.662;2022-07-11T07:21:17;19.20;71.70
21918;DHT22;11123;49.882;8.662;2022-07-11T07:23:47;19.30;61.60
21918;DHT22;11123;49.882;8.662;2022-07-11T07:26:15;19.30;66.10
21918;DHT22;11123;49.882;8.662;2022-07-11T07:28:43;19.30;56.20
21918;DHT22;11123;49.882;8.662;2022-07-11T07:31:13;19.20;62.20
21918;DHT22;11123;49.882;8.662;2022-07-11T07:33:43;19.30;66.30
21918;DHT22;11123;49.882;8.662;2022-07-11T07:36:13;19.40;62.70
21918;DHT22;11123;49.882;8.662;2022-07-11T07:38:42;19.50;48.90
21918;DHT22;11123;49.882;8.662;2022-07-11T07:41:13;19.50;46.00
21918;DHT22;11123;49.882;8.662;2022-07-11T07:43:41;19.40;52.50
21918;DHT22;11123;49.882;8.662;2022-07-11T07:46:09;19.30;53.80
21918;DHT22;11123;49.882;8.662;2022-07-11T07:48:40;19.40;55.10
21918;DHT22;11123;49.882;8.662;2022-07-11T07:51:08;19.50;55.10
21918;DHT22;11123;49.882;8.662;2022-07-11T07:53:36;19.70;52.00
21918;DHT22;11123;49.882;8.662;2022-07-11T07:56:05;19.90;41.30
21918;DHT22;11123;49.882;8.662;2022-07-11T07:58:35;19.90;30.00
21918;DHT22;11123;49.882;8.662;2022-07-11T08:01:03;19.90;34.70
21918;DHT22;11123;49.882;8.662;2022-07-11T08:03:49;19.80;39.00
21918;DHT22;11123;49.882;8.662;2022-07-11T08:06:17;19.80;42.50
21918;DHT22;11123;49.882;8.662;2022-07-11T08:08:45;19.70;44.70
21918;DHT22;11123;49.882;8.662;2022-07-11T08:11:13;19.60;46.60
21918;DHT22;11123;49.882;8.662;2022-07-11T08:14:00;19.50;48.40
21918;DHT22;11123;49.882;8.662;2022-07-11T08:16:31;19.30;54.80
21918;DHT22;11123;49.882;8.662;2022-07-11T08:19:02;19.30;61.00
21918;DHT22;11123;49.882;8.662;2022-07-11T08:21:31;19.30;61.50
21918;DHT22;11123;49.882;8.662;2022-07-11T08:24:00;19.40;62.70
21918;DHT22;11123;49.882;8.662;2022-07-11T08:26:29;19.40;64.80
21918;DHT22;11123;49.882;8.662;2022-07-11T08:29:03;19.50;63.20
21918;DHT22;11123;49.882;8.662;2022-07-11T08:31:32;19.40;60.00
21918;DHT22;11123;49.882;8.662;2022-07-11T08:34:01;19.50;58.60
21918;DHT22;11123;49.882;8.662;2022-07-11T08:36:29;19.60;52.50
21918;DHT22;11123;49.882;8.662;2022-07-11T08:39:01;19.50;50.60
21918;DHT22;11123;49.882;8.662;2022-07-11T08:41:31;19.50;54.30
21918;DHT22;11123;49.882;8.662;2022-07-11T08:44:01;19.40;50.80
21918;DHT22;11123;49.882;8.662;2022-07-11T08:46:30;19.50;53.00
21918;DHT22;11123;49.882;8.662;2022-07-11T08:48:59;19.60;50.80
21918;DHT22;11123;49.882;8.662;2022-07-11T08:51:30;19.60;46.30
21918;DHT22;11123;49.882;8.662;2022-07-11T08:53:58;19.70;44.10
21918;DHT22;11123;49.882;8.662;2022-07-11T08:56:27;19.70;37.00
21918;DHT22;11123;49.882;8.662;2022-07-11T08:58:58;19.70;42.10
21918;DHT22;11123;49.882;8.662;2022-07-11T09:01:30;19.90;40.60
21918;DHT22;11123;49.882;8.662;2022-07-11T09:03:59;19.90;35.70
21918;DHT22;11123;49.882;8.662;2022-07-11T09:06:28;20.10;34.00
21918;DHT22;11123;49.882;8.662;2022-07-11T09:08:57;20.30;27.20
21918;DHT22;11123;49.882;8.662;2022-07-11T09:11:26;20.40;22.70
21918;DHT22;11123;49.882;8.662;2022-07-11T09:13:55;20.40;21.10
21918;DHT22;11123;49.882;8.662;2022-07-11T09:16:23;20.40;22.80
21918;DHT22;11123;49.882;8.662;2022-07-11T09:18:59;20.30;21.80
21918;DHT22;11123;49.882;8.662;2022-07-11T09:21:28;20.30;22.40
21918;DHT22;11123;49.882;8.662;2022-07-11T09:24:14;20.20;21.00
21918;DHT22;11123;49.882;8.662;2022-07-11T09:27:00;20.20;24.00
21918;DHT22;11123;49.882;8.662;2022-07-11T09:29:28;20.00;31.10
21918;DHT22;11123;49.882;8.662;2022-07-11T09:31:56;20.10;35.70
21918;DHT22;11123;49.882;8.662;2022-07-11T09:34:26;20.00;37.30
21918;DHT22;11123;49.882;8.662;2022-07-11T09:36:56;20.00;40.00
21918;DHT22;11123;49.882;8.662;2022-07-11T09:39:26;20.10;42.10
21918;DHT22;11123;49.882;8.662;2022-07-11T09:41:55;20.30;37.10
21918;DHT22;11123;49.882;8.662;2022-07-11T09:44:26;20.30;29.50
21918;DHT22;11123;49.882;8.662;2022-07-11T09:46:56;20.40;28.20
21918;DHT22;11123;49.882;8.662;2022-07-11T09:49:33;20.50;27.00
21918;DHT22;11123;49.882;8.662;2022-07-11T09:52:10;20.70;20.80
21918;DHT22;11123;49.882;8.662;2022-07-11T09:54:52;21.00;10.20
21918;DHT22;11123;49.882;8.662;2022-07-11T09:57:29;21.30;6.60
21918;DHT22;11123;49.882;8.662;2022-07-11T09:59:58;21.40;1.00
21918;DHT22;11123;49.882;8.662;2022-07-11T10:02:31;21.50;1.00
21918;DHT22;11123;49.882;8.662;2022-07-11T10:05:01;21.70;1.00
21918;DHT22;11123;49.882;8.662;2022-07-11T10:07:30;21.80;1.00
21918;DHT22;11123;49.882;8.662;2022-07-11T10:09:59;21.70;1.00
21918;DHT22;11123;49.882;8.662;2022-07-11T10:12:28;21.50;1.00
21918;DHT22;11123;49.882;8.662;2022-07-11T10:15:01;21.30;1.00
21918;DHT22;11123;49.882;8.662;2022-07-11T10:17:36;21.30;1.00
21918;DHT22;11123;49.882;8.662;2022-07-11T10:20:10;21.40;1.00
21918;DHT22;11123;49.882;8.662;2022-07-11T10:22:42;21.50;1.00
21918;DHT22;11123;49.882;8.662;2022-07-11T10:25:17;21.80;1.00
21918;DHT22;11123;49.882;8.662;2022-07-11T10:30:49;22.30;1.00
21918;DHT22;11123;49.882;8.662;2022-07-11T10:33:18;22.70;1.00
21918;DHT22;11123;49.882;8.662;2022-07-11T10:35:50;22.70;1.00
21918;DHT22;11123;49.882;8.662;2022-07-11T10:38:19;22.60;1.00
21918;DHT22;11123;49.882;8.662;2022-07-11T10:40:50;22.50;1.00
21918;DHT22;11123;49.882;8.662;2022-07-11T10:43:35;22.40;1.00
21918;DHT22;11123;49.882;8.662;2022-07-11T10:46:06;22.20;1.00
21918;DHT22;11123;49.882;8.662;2022-07-11T10:48:51;21.80;1.00
21918;DHT22;11123;49.882;8.662;2022-07-11T10:51:32;21.70;1.00
21918;DHT22;11123;49.882;8.662;2022-07-11T10:54:29;21.70;1.00
21918;DHT22;11123;49.882;8.662;2022-07-11T10:57:14;21.70;1.00
21918;DHT22;11123;49.882;8.662;2022-07-11T11:00:00;21.80;1.00
21918;DHT22;11123;49.882;8.662;2022-07-11T11:02:30;21.90;1.00
21918;DHT22;11123;49.882;8.662;2022-07-11T11:04:59;22.10;1.00
21918;DHT22;11123;49.882;8.662;2022-07-11T11:07:34;22.20;1.00
21918;DHT22;11123;49.882;8.662;2022-07-11T11:10:05;22.30;1.00
21918;DHT22;11123;49.882;8.662;2022-07-11T11:15:52;22.30;1.00
21918;DHT22;11123;49.882;8.662;2022-07-11T11:18:34;22.30;1.00
21918;DHT22;11123;49.882;8.662;2022-07-11T11:21:20;22.50;1.00
21918;DHT22;11123;49.882;8.662;2022-07-11T11:24:04;22.80;1.00
21918;DHT22;11123;49.882;8.662;2022-07-11T11:26:49;23.10;1.00
21918;DHT22;11123;49.882;8.662;2022-07-11T11:29:26;23.10;1.00
21918;DHT22;11123;49.882;8.662;2022-07-11T11:31:58;23.10;1.00
21918;DHT22;11123;49.882;8.662;2022-07-11T11:34:27;22.90;1.00
21918;DHT22;11123;49.882;8.662;2022-07-11T11:36:59;22.80;1.00
21918;DHT22;11123;49.882;8.662;2022-07-11T11:39:35;22.60;1.00
21918;DHT22;11123;49.882;8.662;2022-07-11T11:42:06;22.60;1.00
21918;DHT22;11123;49.882;8.662;2022-07-11T11:44:50;22.60;1.00
21918;DHT22;11123;49.882;8.662;2022-07-11T11:47:19;22.70;1.00
21918;DHT22;11123;49.882;8.662;2022-07-11T11:49:48;22.80;1.00
21918;DHT22;11123;49.882;8.662;2022-07-11T11:52:17;22.80;1.00
21918;DHT22;11123;49.882;8.662;2022-07-11T11:54:58;22.80;1.00
21918;DHT22;11123;49.882;8.662;2022-07-11T11:57:28;22.90;1.00
21918;DHT22;11123;49.882;8.662;2022-07-11T11:59:57;23.10;1.00
21918;DHT22;11123;49.882;8.662;2022-07-11T12:02:27;23.20;1.00
21918;DHT22;11123;49.882;8.662;2022-07-11T12:04:56;23.20;1.00
21918;DHT22;11123;49.882;8.662;2022-07-11T12:07:29;23.20;1.00
21918;DHT22;11123;49.882;8.662;2022-07-11T12:09:59;23.20;1.00
21918;DHT22;11123;49.882;8.662;2022-07-11T12:12:30;23.10;1.00
21918;DHT22;11123;49.882;8.662;2022-07-11T12:15:29;23.00;1.00
21918;DHT22;11123;49.882;8.662;2022-07-11T12:18:03;22.90;1.00
21918;DHT22;11123;49.882;8.662;2022-07-11T12:20:40;22.80;1.00
21918;DHT22;11123;49.882;8.662;2022-07-11T12:23:13;22.80;1.00
21918;DHT22;11123;49.882;8.662;2022-07-11T12:25:49;22.80;1.00
21918;DHT22;11123;49.882;8.662;2022-07-11T12:28:19;22.90;1.00
21918;DHT22;11123;49.882;8.662;2022-07-11T12:30:54;23.10;1.00
21918;DHT22;11123;49.882;8.662;2022-07-11T12:33:23;23.20;1.00
21918;DHT22;11123;49.882;8.662;2022-07-11T12:35:57;23.20;1.00
21918;DHT22;11123;49.882;8.662;2022-07-11T12:38:26;23.20;1.00
21918;DHT22;11123;49.882;8.662;2022-07-11T12:41:15;23.20;1.00
21918;DHT22;11123;49.882;8.662;2022-07-11T12:43:47;23.60;1.00
21918;DHT22;11123;49.882;8.662;2022-07-11T12:46:33;24.00;1.00
21918;DHT22;11123;49.882;8.662;2022-07-11T12:49:03;24.20;1.00
21918;DHT22;11123;49.882;8.662;2022-07-11T12:51:32;24.20;1.00
21918;DHT22;11123;49.882;8.662;2022-07-11T12:54:04;24.30;1.00
21918;DHT22;11123;49.882;8.662;2022-07-11T12:56:34;24.40;1.00
21918;DHT22;11123;49.882;8.662;2022-07-11T12:59:03;24.10;1.00
21918;DHT22;11123;49.882;8.662;2022-07-11T13:01:54;23.90;1.00
21918;DHT22;11123;49.882;8.662;2022-07-11T13:04:37;23.90;1.00
21918;DHT22;11123;49.882;8.662;2022-07-11T13:07:20;23.80;1.00
21918;DHT22;11123;49.882;8.662;2022-07-11T13:10:08;23.80;1.00
21918;DHT22;11123;49.882;8.662;2022-07-11T13:12:38;24.00;1.00
21918;DHT22;11123;49.882;8.662;2022-07-11T13:15:09;24.10;1.00
21918;DHT22;11123;49.882;8.662;2022-07-11T13:17:39;24.60;1.00
21918;DHT22;11123;49.882;8.662;2022-07-11T13:20:10;24.80;1.00
21918;DHT22;11123;49.882;8.662;2022-07-11T13:22:41;25.00;1.00
21918;DHT22;11123;49.882;8.662;2022-07-11T13:25:11;25.20;1.00
21918;DHT22;11123;49.882;8.662;2022-07-11T13:27:43;25.20;1.00
21918;DHT22;11123;49.882;8.662;2022-07-11T13:30:15;25.70;1.00
21918;DHT22;11123;49.882;8.662;2022-07-11T13:32:44;25.90;1.00
21918;DHT22;11123;49.882;8.662;2022-07-11T13:35:13;26.10;1.00
21918;DHT22;11123;49.882;8.662;2022-07-11T13:37:45;26.40;1.00
21918;DHT22;11123;49.882;8.662;2022-07-11T13:40:16;26.30;1.00
21918;DHT22;11123;49.882;8.662;2022-07-11T13:42:47;26.50;1.00
21918;DHT22;11123;49.882;8.662;2022-07-11T13:45:18;26.40;1.00
21918;DHT22;11123;49.882;8.662;2022-07-11T13:47:47;26.40;1.00
21918;DHT22;11123;49.882;8.662;2022-07-11T13:50:17;26.10;1.00
21918;DHT22;11123;49.882;8.662;2022-07-11T13:52:48;25.90;1.00
21918;DHT22;11123;49.882;8.662;2022-07-11T13:55:21;26.00;1.00
21918;DHT22;11123;49.882;8.662;2022-07-11T13:57:52;26.20;1.00
21918;DHT22;11123;49.882;8.662;2022-07-11T14:00:21;26.20;1.00
21918;DHT22;11123;49.882;8.662;2022-07-11T14:02:53;26.50;1.00
21918;DHT22;11123;49.882;8.662;2022-07-11T14:05:21;26.80;1.00
21918;DHT22;11123;49.882;8.662;2022-07-11T14:07:50;26.80;1.00
21918;DHT22;11123;49.882;8.662;2022-07-11T14:10:19;27.00;1.00
21918;DHT22;11123;49.882;8.662;2022-07-11T14:12:56;27.00;1.00
21918;DHT22;11123;49.882;8.662;2022-07-11T14:15:25;26.90;1.00
21918;DHT22;11123;49.882;8.662;2022-07-11T14:17:54;27.00;1.00
21918;DHT22;11123;49.882;8.662;2022-07-11T14:20:22;27.30;1.00
21918;DHT22;11123;49.882;8.662;2022-07-11T14:22:51;27.60;1.00
21918;DHT22;11123;49.882;8.662;2022-07-11T14:25:19;27.70;1.00
21918;DHT22;11123;49.882;8.662;2022-07-11T14:27:48;27.70;99.90
21918;DHT22;11123;49.882;8.662;2022-07-11T14:30:18;27.20;1.00
21918;DHT22;11123;49.882;8.662;2022-07-11T14:32:47;27.20;1.00
21918;DHT22;11123;49.882;8.662;2022-07-11T14:35:15;27.00;1.00
21918;DHT22;11123;49.882;8.662;2022-07-11T14:37:44;26.70;1.00
21918;DHT22;11123;49.882;8.662;2022-07-11T14:40:12;26.20;1.00
21918;DHT22;11123;49.882;8.662;2022-07-11T14:42:41;25.90;1.00
21918;DHT22;11123;49.882;8.662;2022-07-11T14:45:10;25.60;1.00
21918;DHT22;11123;49.882;8.662;2022-07-11T14:47:41;25.30;1.00
21918;DHT22;11123;49.882;8.662;2022-07-11T14:50:09;25.00;1.00
21918;DHT22;11123;49.882;8.662;2022-07-11T14:52:39;25.20;1.00
21918;DHT22;11123;49.882;8.662;2022-07-11T14:55:07;25.50;1.00
21918;DHT22;11123;49.882;8.662;2022-07-11T14:57:36;25.70;1.00
21918;DHT22;11123;49.882;8.662;2022-07-11T15:00:14;25.90;1.00
21918;DHT22;11123;49.882;8.662;2022-07-11T15:02:47;26.40;1.00
21918;DHT22;11123;49.882;8.662;2022-07-11T15:05:33;26.60;1.00
21918;DHT22;11123;49.882;8.662;2022-07-11T15:08:02;26.30;1.00
21918;DHT22;11123;49.882;8.662;2022-07-11T15:10:48;26.40;1.00
21918;DHT22;11123;49.882;8.662;2022-07-11T15:13:34;26.90;1.00
21918;DHT22;11123;49.882;8.662;2022-07-11T15:16:03;26.70;1.00
21918;DHT22;11123;49.882;8.662;2022-07-11T15:18:33;26.30;1.00
21918;DHT22;11123;49.882;8.662;2022-07-11T15:21:01;26.00;1.00
21918;DHT22;11123;49.882;8.662;2022-07-11T15:23:30;25.70;1.00
21918;DHT22;11123;49.882;8.662;2022-07-11T15:26:00;25.40;1.00
21918;DHT22;11123;49.882;8.662;2022-07-11T15:28:31;25.20;1.00
21918;DHT22;11123;49.882;8.662;2022-07-11T15:31:01;25.10;1.00
21918;DHT22;11123;49.882;8.662;2022-07-11T15:33:33;25.20;1.00
21918;DHT22;11123;49.882;8.662;2022-07-11T15:36:02;25.80;1.00
21918;DHT22;11123;49.882;8.662;2022-07-11T15:38:30;26.10;1.00
21918;DHT22;11123;49.882;8.662;2022-07-11T15:40:59;26.30;1.00
21918;DHT22;11123;49.882;8.662;2022-07-11T15:43:27;26.00;1.00
21918;DHT22;11123;49.882;8.662;2022-07-11T15:45:56;25.90;1.00
21918;DHT22;11123;49.882;8.662;2022-07-11T15:48:25;26.00;1.00
21918;DHT22;11123;49.882;8.662;2022-07-11T15:50:55;26.20;1.00
21918;DHT22;11123;49.882;8.662;2022-07-11T15:53:23;26.20;1.00
21918;DHT22;11123;49.882;8.662;2022-07-11T15:55:51;25.90;1.00
21918;DHT22;11123;49.882;8.662;2022-07-11T15:58:20;25.70;1.00
21918;DHT22;11123;49.882;8.662;2022-07-11T16:00:49;25.40;1.00
21918;DHT22;11123;49.882;8.662;2022-07-11T16:03:19;25.20;1.00
21918;DHT22;11123;49.882;8.662;2022-07-11T16:05:48;24.90;1.00